createdAt,value
2018-06-12T00:02:27.340Z,25.80
2018-06-12T00:04:54.184Z,25.80
2018-06-12T00:07:21.017Z,25.80
2018-06-12T00:09:47.842Z,25.80
2018-06-12T00:12:14.737Z,25.80
2018-06-12T00:14:41.559Z,25.80
2018-06-12T00:17:08.678Z,25.80
2018-06-12T00:19:35.468Z,25.80
2018-06-12T00:22:02.528Z,25.80
2018-06-12T00:24:29.360Z,25.70
2018-06-12T00:26:56.214Z,25.70
2018-06-12T00:29:23.031Z,25.70
2018-06-12T00:31:49.899Z,25.70
2018-06-12T00:34:16.709Z,25.70
2018-06-12T00:36:43.591Z,25.70
2018-06-12T00:39:10.411Z,25.70
2018-06-12T00:41:37.233Z,25.70
2018-06-12T00:44:04.058Z,25.70
2018-06-12T00:46:30.946Z,25.70
2018-06-12T00:48:57.782Z,25.70
2018-06-12T00:51:24.615Z,25.70
2018-06-12T00:53:51.430Z,25.70
2018-06-12T00:56:18.324Z,25.70
2018-06-12T00:58:45.147Z,25.70
2018-06-12T01:01:11.963Z,25.70
2018-06-12T01:03:38.778Z,25.70
2018-06-12T01:08:32.749Z,25.70
2018-06-12T01:10:59.585Z,25.70
2018-06-12T01:13:26.402Z,25.70
2018-06-12T01:15:53.272Z,25.60
2018-06-12T01:18:20.101Z,25.60
2018-06-12T01:20:46.930Z,25.60
2018-06-12T01:23:13.758Z,25.60
2018-06-12T01:25:40.645Z,25.60
2018-06-12T01:28:07.469Z,25.60
2018-06-12T01:30:34.295Z,25.60
2018-06-12T01:33:01.138Z,25.60
2018-06-12T01:35:28.017Z,25.60
2018-06-12T01:37:54.827Z,25.60
2018-06-12T01:40:21.648Z,25.60
2018-06-12T01:42:48.461Z,25.60
2018-06-12T01:45:15.386Z,25.60
2018-06-12T01:47:42.213Z,25.60
2018-06-12T01:50:09.038Z,25.60
2018-06-12T01:52:35.889Z,25.60
2018-06-12T01:55:02.702Z,25.60
2018-06-12T01:57:29.522Z,25.60
2018-06-12T01:59:56.364Z,25.60
2018-06-12T02:02:23.164Z,25.60
2018-06-12T02:04:49.983Z,25.60
2018-06-12T02:07:16.803Z,25.60
2018-06-12T02:09:43.643Z,25.60
2018-06-12T02:12:10.467Z,25.60
2018-06-12T02:14:37.281Z,25.50
2018-06-12T02:17:04.145Z,25.60
2018-06-12T02:19:30.966Z,25.60
2018-06-12T02:21:57.802Z,25.50
2018-06-12T02:24:24.634Z,25.50
2018-06-12T02:26:51.515Z,25.50
2018-06-12T02:29:18.338Z,25.50
2018-06-12T02:31:45.154Z,25.50
2018-06-12T02:34:11.987Z,25.50
2018-06-12T02:36:38.885Z,25.50
2018-06-12T02:39:05.706Z,25.50
2018-06-12T02:41:32.542Z,25.50
2018-06-12T02:43:59.364Z,25.50
2018-06-12T02:46:26.259Z,25.60
2018-06-12T02:48:53.099Z,25.50
2018-06-12T02:51:19.927Z,25.50
2018-06-12T02:53:46.747Z,25.50
2018-06-12T02:56:13.657Z,25.50
2018-06-12T02:58:40.452Z,25.50
2018-06-12T03:01:07.287Z,25.50
2018-06-12T03:03:34.105Z,25.50
2018-06-12T03:06:01.040Z,25.50
2018-06-12T03:08:27.856Z,25.50
2018-06-12T03:10:54.677Z,25.50
2018-06-12T03:13:21.491Z,25.50
2018-06-12T03:15:48.374Z,25.50
2018-06-12T03:18:15.212Z,25.50
2018-06-12T03:20:42.024Z,25.50
2018-06-12T03:23:08.889Z,25.50
2018-06-12T03:25:35.746Z,25.50
2018-06-12T03:28:02.573Z,25.50
2018-06-12T03:30:29.399Z,25.50
2018-06-12T03:32:56.230Z,25.50
2018-06-12T03:35:23.115Z,25.50
2018-06-12T03:37:49.932Z,25.40
2018-06-12T03:40:16.752Z,25.50
2018-06-12T03:42:43.681Z,25.50
2018-06-12T03:45:10.503Z,25.40
2018-06-12T03:47:37.346Z,25.40
2018-06-12T03:50:04.177Z,25.40
2018-06-12T03:52:31.011Z,25.40
2018-06-12T03:54:57.895Z,25.40
2018-06-12T03:57:24.674Z,25.40
2018-06-12T03:59:51.497Z,25.40
2018-06-12T04:02:18.756Z,25.40
2018-06-12T04:04:45.594Z,25.40
2018-06-12T04:07:12.494Z,25.40
2018-06-12T04:09:39.293Z,25.40
2018-06-12T04:12:06.162Z,25.40
2018-06-12T04:14:33.587Z,25.40
2018-06-12T04:17:00.475Z,25.30
2018-06-12T04:19:27.303Z,25.00
2018-06-12T04:21:54.146Z,24.40
2018-06-12T04:24:20.980Z,23.80
2018-06-12T04:26:47.840Z,23.60
2018-06-12T04:29:14.683Z,23.40
2018-06-12T04:31:41.518Z,23.30
2018-06-12T04:34:08.338Z,23.10
2018-06-12T04:36:35.208Z,23.00
2018-06-12T04:39:02.028Z,23.00
2018-06-12T04:41:28.851Z,22.90
2018-06-12T04:43:55.731Z,22.90
2018-06-12T04:46:22.624Z,23.00
2018-06-12T04:48:49.439Z,22.90
2018-06-12T04:51:16.265Z,22.60
2018-06-12T04:53:43.090Z,22.50
2018-06-12T04:56:09.956Z,22.40
2018-06-12T04:58:36.766Z,22.50
2018-06-12T05:01:03.590Z,22.60
2018-06-12T05:03:30.431Z,22.80
2018-06-12T05:05:57.327Z,22.90
2018-06-12T05:08:24.181Z,22.90
2018-06-12T05:10:51.005Z,22.90
2018-06-12T05:13:17.878Z,22.90
2018-06-12T05:15:44.957Z,23.00
2018-06-12T05:18:11.730Z,23.00
2018-06-12T05:20:38.577Z,22.70
2018-06-12T05:23:05.395Z,22.50
2018-06-12T05:25:32.322Z,22.50
2018-06-12T05:27:59.564Z,22.50
2018-06-12T05:30:26.391Z,22.50
2018-06-12T05:32:53.214Z,22.50
2018-06-12T05:35:20.058Z,22.40
2018-06-12T05:37:46.917Z,22.40
2018-06-12T05:40:13.758Z,22.50
2018-06-12T05:42:40.579Z,22.50
2018-06-12T05:45:07.412Z,22.40
2018-06-12T05:47:34.243Z,22.40
2018-06-12T05:50:01.069Z,22.50
2018-06-12T05:52:27.901Z,22.60
2018-06-12T05:54:54.796Z,22.50
2018-06-12T05:57:21.630Z,22.50
2018-06-12T05:59:48.465Z,22.40
2018-06-12T06:02:15.775Z,22.30
2018-06-12T06:04:42.584Z,22.30
2018-06-12T06:07:09.428Z,22.20
2018-06-12T06:09:36.255Z,22.20
2018-06-12T06:12:03.106Z,22.20
2018-06-12T06:14:29.964Z,22.10
2018-06-12T06:16:56.825Z,22.30
2018-06-12T06:19:23.627Z,22.20
2018-06-12T06:21:50.453Z,22.20
2018-06-12T06:24:17.284Z,22.20
2018-06-12T06:26:44.167Z,22.20
2018-06-12T06:29:10.998Z,22.20
2018-06-12T06:31:37.825Z,22.20
2018-06-12T06:34:04.711Z,22.30
2018-06-12T06:36:31.569Z,22.30
2018-06-12T06:38:58.392Z,22.30
2018-06-12T06:41:25.219Z,22.40
2018-06-12T06:43:52.078Z,22.40
2018-06-12T06:46:18.909Z,22.40
2018-06-12T06:48:45.746Z,22.40
2018-06-12T06:51:12.570Z,22.40
2018-06-12T06:53:39.447Z,22.60
2018-06-12T06:56:06.287Z,22.60
2018-06-12T06:58:33.123Z,22.60
2018-06-12T07:00:59.962Z,22.60
2018-06-12T07:03:26.837Z,22.50
2018-06-12T07:05:53.859Z,22.50
2018-06-12T07:08:20.683Z,22.40
2018-06-12T07:10:47.517Z,22.60
2018-06-12T07:13:14.342Z,22.60
2018-06-12T07:15:41.230Z,22.60
2018-06-12T07:18:08.055Z,22.60
2018-06-12T07:20:34.888Z,22.50
2018-06-12T07:23:01.715Z,22.60
2018-06-12T07:25:28.598Z,22.60
2018-06-12T07:27:55.451Z,22.50
2018-06-12T07:30:22.335Z,22.40
2018-06-12T07:32:49.170Z,22.40
2018-06-12T07:35:16.174Z,22.40
2018-06-12T07:37:43.174Z,22.50
2018-06-12T07:40:09.828Z,22.30
2018-06-12T07:42:36.689Z,22.30
2018-06-12T07:45:03.507Z,22.30
2018-06-12T07:47:30.326Z,22.30
2018-06-12T07:49:57.152Z,22.30
2018-06-12T07:52:23.987Z,22.30
2018-06-12T07:54:50.812Z,22.40
2018-06-12T07:57:17.665Z,22.40
2018-06-12T07:59:44.502Z,22.50
2018-06-12T08:04:38.948Z,22.50
2018-06-12T08:07:06.018Z,22.40
2018-06-12T08:09:32.790Z,22.40
2018-06-12T08:11:59.625Z,22.40
2018-06-12T08:14:26.456Z,22.40
2018-06-12T08:16:53.333Z,22.40
2018-06-12T08:19:20.158Z,22.40
2018-06-12T08:21:47.005Z,22.40
2018-06-12T08:24:13.824Z,22.40
2018-06-12T08:26:40.699Z,22.40
2018-06-12T08:29:07.535Z,22.30
2018-06-12T08:31:34.368Z,22.30
2018-06-12T08:34:01.198Z,22.30
2018-06-12T08:36:28.073Z,22.40
2018-06-12T08:38:54.907Z,22.40
2018-06-12T08:41:21.733Z,22.40
2018-06-12T08:43:48.574Z,22.40
2018-06-12T08:46:15.438Z,22.40
2018-06-12T08:48:42.268Z,22.50
2018-06-12T08:51:09.096Z,22.40
2018-06-12T08:53:35.935Z,22.40
2018-06-12T08:56:02.816Z,22.40
2018-06-12T08:58:29.639Z,22.40
2018-06-12T09:00:56.471Z,22.50
2018-06-12T09:03:23.338Z,22.40
2018-06-12T09:05:50.184Z,22.80
2018-06-12T09:08:17.069Z,23.20
2018-06-12T09:10:43.853Z,23.50
2018-06-12T09:13:10.682Z,23.70
2018-06-12T09:15:37.597Z,23.70
2018-06-12T09:18:04.416Z,23.80
2018-06-12T09:20:31.239Z,23.80
2018-06-12T09:22:58.088Z,23.80
2018-06-12T09:25:25.137Z,23.90
2018-06-12T09:27:51.952Z,23.90
2018-06-12T09:30:19.477Z,23.90
2018-06-12T09:32:46.271Z,24.00
2018-06-12T09:35:13.117Z,24.00
2018-06-12T09:37:39.956Z,23.90
2018-06-12T09:40:06.782Z,24.00
2018-06-12T09:42:33.611Z,24.00
2018-06-12T09:45:00.450Z,24.00
2018-06-12T09:47:27.288Z,24.10
2018-06-12T09:49:54.141Z,24.10
2018-06-12T09:52:20.940Z,24.10
2018-06-12T09:57:14.901Z,24.10
2018-06-12T09:59:41.716Z,24.10
2018-06-12T10:02:08.554Z,24.20
2018-06-12T10:04:35.388Z,24.20
2018-06-12T10:07:02.293Z,24.20
2018-06-12T10:09:29.114Z,24.20
2018-06-12T10:11:56.006Z,24.10
2018-06-12T10:14:22.803Z,24.10
2018-06-12T10:16:49.649Z,24.20
2018-06-12T10:19:16.487Z,24.30
2018-06-12T10:21:43.314Z,24.40
2018-06-12T10:24:10.143Z,24.30
2018-06-12T10:26:37.026Z,24.10
2018-06-12T10:29:03.854Z,24.10
2018-06-12T10:31:30.682Z,24.20
2018-06-12T10:33:57.516Z,24.30
2018-06-12T10:36:24.426Z,24.40
2018-06-12T10:43:45.548Z,24.40
2018-06-12T10:46:13.000Z,24.60
2018-06-12T10:48:39.818Z,24.60
2018-06-12T10:51:06.670Z,24.70
2018-06-12T10:53:33.518Z,24.60
2018-06-12T10:58:27.620Z,24.60
2018-06-12T11:00:54.442Z,24.60
2018-06-12T11:03:21.269Z,24.50
2018-06-12T11:05:48.144Z,24.50
2018-06-12T11:08:14.996Z,24.50
2018-06-12T11:10:41.794Z,24.40
2018-06-12T11:13:08.631Z,24.30
2018-06-12T11:15:35.512Z,24.30
2018-06-12T11:18:02.341Z,24.30
2018-06-12T11:20:29.162Z,24.30
2018-06-12T11:22:56.158Z,24.50
2018-06-12T11:25:23.101Z,24.50
2018-06-12T11:27:49.918Z,24.50
2018-06-12T11:30:17.496Z,24.50
2018-06-12T11:32:44.299Z,24.60
2018-06-12T11:35:11.295Z,24.50
2018-06-12T11:37:38.124Z,24.60
2018-06-12T11:40:05.599Z,24.50
2018-06-12T11:42:32.624Z,24.60
2018-06-12T11:44:59.429Z,24.70
2018-06-12T11:47:26.675Z,24.80
2018-06-12T11:49:53.539Z,24.80
2018-06-12T11:52:20.349Z,24.90
2018-06-12T11:54:47.257Z,24.90
2018-06-12T11:57:14.085Z,24.90
2018-06-12T11:59:40.905Z,25.00
2018-06-12T12:02:07.729Z,25.00
2018-06-12T12:04:34.552Z,24.90
2018-06-12T12:07:01.492Z,24.90
2018-06-12T12:09:28.300Z,24.90
2018-06-12T12:11:55.133Z,24.90
2018-06-12T12:14:21.974Z,24.80
2018-06-12T12:16:48.881Z,24.80
2018-06-12T12:19:15.680Z,24.70
2018-06-12T12:21:42.514Z,24.70
2018-06-12T12:24:09.340Z,24.70
2018-06-12T12:26:36.216Z,24.70
2018-06-12T12:29:03.051Z,24.60
2018-06-12T12:31:29.894Z,24.60
2018-06-12T12:33:56.711Z,24.50
2018-06-12T12:36:23.587Z,24.40
2018-06-12T12:38:50.408Z,24.40
2018-06-12T12:41:17.225Z,24.30
2018-06-12T12:43:44.068Z,24.20
2018-06-12T12:46:10.954Z,24.10
2018-06-12T12:48:37.762Z,24.10
2018-06-12T12:51:04.596Z,24.20
2018-06-12T12:53:31.406Z,24.20
2018-06-12T12:55:58.328Z,24.20
2018-06-12T12:58:25.175Z,24.20
2018-06-12T13:00:51.994Z,24.10
2018-06-12T13:03:18.935Z,24.10
2018-06-12T13:05:45.910Z,24.10
2018-06-12T13:08:12.812Z,24.10
2018-06-12T13:10:39.578Z,24.10
2018-06-12T13:13:07.634Z,24.10
2018-06-12T13:15:34.501Z,24.10
2018-06-12T13:18:01.592Z,24.10
2018-06-12T13:20:29.254Z,24.10
2018-06-12T13:22:57.326Z,24.00
2018-06-12T13:25:25.033Z,24.00
2018-06-12T13:27:51.882Z,24.00
2018-06-12T13:30:19.495Z,24.00
2018-06-12T13:32:46.301Z,24.00
2018-06-12T13:35:13.135Z,24.00
2018-06-12T13:37:40.011Z,24.00
2018-06-12T13:40:07.972Z,24.00
2018-06-12T13:42:36.119Z,23.90
2018-06-12T13:45:03.277Z,23.90
2018-06-12T13:47:30.094Z,23.90
2018-06-12T13:49:56.938Z,23.90
2018-06-12T13:52:23.762Z,23.90
2018-06-12T13:54:50.661Z,23.90
2018-06-12T13:57:17.439Z,23.90
2018-06-12T13:59:44.280Z,24.00
2018-06-12T14:02:11.109Z,23.90
2018-06-12T14:04:37.925Z,24.00
2018-06-12T14:07:04.997Z,24.00
2018-06-12T14:09:31.786Z,24.00
2018-06-12T14:11:58.614Z,24.20
2018-06-12T14:14:25.447Z,24.40
2018-06-12T14:16:52.338Z,24.40
2018-06-12T14:19:19.167Z,24.50
2018-06-12T14:21:45.986Z,24.50
2018-06-12T14:24:12.808Z,24.60
2018-06-12T14:26:39.704Z,24.60
2018-06-12T14:29:06.522Z,24.70
2018-06-12T14:31:33.361Z,24.60
2018-06-12T14:34:00.245Z,24.70
2018-06-12T14:36:27.092Z,24.70
2018-06-12T14:38:53.918Z,24.70
2018-06-12T14:41:20.750Z,24.70
2018-06-12T14:43:47.573Z,24.70
2018-06-12T14:46:14.454Z,24.70
2018-06-12T14:48:41.286Z,24.70
2018-06-12T14:51:08.132Z,24.70
2018-06-12T14:53:34.938Z,24.80
2018-06-12T14:56:01.821Z,24.80
2018-06-12T14:58:28.641Z,24.90
2018-06-12T15:00:55.478Z,24.90
2018-06-12T15:03:22.333Z,24.90
2018-06-12T15:05:49.214Z,25.00
2018-06-12T15:08:16.029Z,25.00
2018-06-12T15:10:42.866Z,25.00
2018-06-12T15:13:09.725Z,25.00
2018-06-12T15:15:37.128Z,25.00
2018-06-12T15:18:03.924Z,25.00
2018-06-12T15:20:31.052Z,25.00
2018-06-12T15:22:57.880Z,25.00
2018-06-12T15:25:25.633Z,25.00
2018-06-12T15:27:52.607Z,25.10
2018-06-12T15:30:20.552Z,25.10
2018-06-12T15:32:47.350Z,25.10
2018-06-12T15:35:15.054Z,25.10
2018-06-12T15:37:41.870Z,25.10
2018-06-12T15:40:09.385Z,25.10
2018-06-12T15:42:36.184Z,25.10
2018-06-12T15:45:03.028Z,25.10
2018-06-12T15:47:30.280Z,25.10
2018-06-12T15:49:57.101Z,25.10
2018-06-12T15:52:23.954Z,25.20
2018-06-12T15:54:50.807Z,25.20
2018-06-12T15:57:17.617Z,25.20
2018-06-12T15:59:44.446Z,25.20
2018-06-12T16:02:11.265Z,25.20
2018-06-12T16:04:38.091Z,25.20
2018-06-12T16:07:04.977Z,25.20
2018-06-12T16:09:31.798Z,25.20
2018-06-12T16:11:58.630Z,25.20
2018-06-12T16:14:25.474Z,25.20
2018-06-12T16:16:52.353Z,25.20
2018-06-12T16:19:19.199Z,25.20
2018-06-12T16:21:46.040Z,25.20
2018-06-12T16:24:12.857Z,25.20
2018-06-12T16:26:39.720Z,25.20
2018-06-12T16:29:06.548Z,25.20
2018-06-12T16:31:33.410Z,25.20
2018-06-12T16:34:00.267Z,25.20
2018-06-12T16:36:27.302Z,25.20
2018-06-12T16:38:54.126Z,25.20
2018-06-12T16:41:20.970Z,25.20
2018-06-12T16:43:47.781Z,25.20
2018-06-12T16:46:14.689Z,25.20
2018-06-12T16:48:41.511Z,25.20
2018-06-12T16:51:08.335Z,25.20
2018-06-12T16:53:35.351Z,25.20
2018-06-12T16:58:29.549Z,25.20
2018-06-12T17:00:56.450Z,25.20
2018-06-12T17:03:23.296Z,25.20
2018-06-12T17:10:45.834Z,25.20
2018-06-12T17:13:12.695Z,25.20
2018-06-12T17:15:39.701Z,25.20
2018-06-12T17:18:06.561Z,25.20
2018-06-12T17:20:33.956Z,25.20
2018-06-12T17:23:00.781Z,25.20
2018-06-12T17:25:27.638Z,25.10
2018-06-12T17:27:54.487Z,25.10
2018-06-12T17:30:21.314Z,25.10
2018-06-12T17:32:48.137Z,25.10
2018-06-12T17:35:15.015Z,25.10
2018-06-12T17:37:41.870Z,25.10
2018-06-12T17:40:08.686Z,25.10
2018-06-12T17:42:39.738Z,25.10
2018-06-12T17:45:06.542Z,25.10
2018-06-12T17:47:33.384Z,25.00
2018-06-12T17:50:00.212Z,25.00
2018-06-12T17:52:27.045Z,25.00
2018-06-12T17:54:53.969Z,25.00
2018-06-12T17:57:20.698Z,25.00
2018-06-12T17:59:47.512Z,25.00
2018-06-12T18:02:14.355Z,25.00
2018-06-12T18:04:41.164Z,25.00
2018-06-12T18:07:08.063Z,25.10
2018-06-12T18:09:34.891Z,25.10
2018-06-12T18:12:01.811Z,25.10
2018-06-12T18:14:28.626Z,25.10
2018-06-12T18:16:55.642Z,25.10
2018-06-12T18:19:22.474Z,25.10
2018-06-12T18:21:49.320Z,25.10
2018-06-12T18:24:16.150Z,25.10
2018-06-12T18:26:43.010Z,25.10
2018-06-12T18:29:09.830Z,25.10
2018-06-12T18:31:36.654Z,25.10
2018-06-12T18:34:03.537Z,25.10
2018-06-12T18:36:30.380Z,25.00
2018-06-12T18:38:57.211Z,25.00
2018-06-12T18:41:24.052Z,25.00
2018-06-12T18:43:50.960Z,25.00
2018-06-12T18:46:17.750Z,25.00
2018-06-12T18:48:44.586Z,25.00
2018-06-12T18:51:11.412Z,25.00
2018-06-12T18:53:38.258Z,25.00
2018-06-12T18:56:05.134Z,25.00
2018-06-12T18:58:31.959Z,24.90
2018-06-12T19:00:58.787Z,24.90
2018-06-12T19:03:25.942Z,25.00
2018-06-12T19:05:52.934Z,25.00
2018-06-12T19:08:19.783Z,25.00
2018-06-12T19:10:46.688Z,25.10
2018-06-12T19:13:13.515Z,25.10
2018-06-12T19:15:40.528Z,25.10
2018-06-12T19:18:07.341Z,25.10
2018-06-12T19:20:35.218Z,25.10
2018-06-12T19:23:02.060Z,25.10
2018-06-12T19:25:28.906Z,25.20
2018-06-12T19:27:55.728Z,25.20
2018-06-12T19:30:22.580Z,25.20
2018-06-12T19:32:49.489Z,25.20
2018-06-12T19:35:16.460Z,25.20
2018-06-12T19:37:43.325Z,25.20
2018-06-12T19:40:10.148Z,25.20
2018-06-12T19:42:36.982Z,25.20
2018-06-12T19:45:03.811Z,25.20
2018-06-12T19:47:31.612Z,25.20
2018-06-12T19:49:58.519Z,25.20
2018-06-12T19:52:25.348Z,25.20
2018-06-12T19:54:52.218Z,25.20
2018-06-12T19:57:19.036Z,25.30
2018-06-12T19:59:45.928Z,25.20
2018-06-12T20:02:12.761Z,25.20
2018-06-12T20:04:39.607Z,25.30
2018-06-12T20:07:06.445Z,25.30
2018-06-12T20:09:33.292Z,25.30
2018-06-12T20:12:00.161Z,25.30
2018-06-12T20:14:26.977Z,25.30
2018-06-12T20:16:53.827Z,25.30
2018-06-12T20:19:20.670Z,25.30
2018-06-12T20:21:47.535Z,25.30
2018-06-12T20:24:14.342Z,25.30
2018-06-12T20:26:41.195Z,25.30
2018-06-12T20:29:08.020Z,25.30
2018-06-12T20:31:34.884Z,25.20
2018-06-12T20:34:01.706Z,25.20
2018-06-12T20:36:28.550Z,25.20
2018-06-12T20:38:55.383Z,25.20
2018-06-12T20:41:22.222Z,25.20
2018-06-12T20:43:49.047Z,25.20
2018-06-12T20:46:15.970Z,25.20
2018-06-12T20:48:42.777Z,25.20
2018-06-12T20:51:09.645Z,25.20
2018-06-12T20:53:36.493Z,25.20
2018-06-12T20:56:03.503Z,25.20
2018-06-12T20:58:30.334Z,25.10
2018-06-12T21:00:57.154Z,25.10
2018-06-12T21:03:23.980Z,25.10
2018-06-12T21:05:50.860Z,25.10
2018-06-12T21:08:17.696Z,25.10
2018-06-12T21:10:45.046Z,25.10
2018-06-12T21:13:11.834Z,25.10
2018-06-12T21:15:38.883Z,25.10
2018-06-12T21:18:05.706Z,25.10
2018-06-12T21:20:32.554Z,25.10
2018-06-12T21:22:59.448Z,25.10
2018-06-12T21:25:26.441Z,25.10
2018-06-12T21:27:53.281Z,25.00
2018-06-12T21:30:20.160Z,25.10
2018-06-12T21:32:46.945Z,25.00
2018-06-12T21:35:14.208Z,25.00
2018-06-12T21:37:41.363Z,25.00
2018-06-12T21:40:08.332Z,25.00
2018-06-12T21:42:35.147Z,25.00
2018-06-12T21:45:02.044Z,25.00
2018-06-12T21:47:29.933Z,25.00
2018-06-12T21:49:57.577Z,25.00
2018-06-12T21:52:24.399Z,24.90
2018-06-12T21:54:51.315Z,24.90
2018-06-12T21:57:18.719Z,24.90
2018-06-12T21:59:45.513Z,24.90
2018-06-12T22:02:12.334Z,24.90
2018-06-12T22:04:39.367Z,24.90
2018-06-12T22:07:06.254Z,24.90
2018-06-12T22:09:33.076Z,24.90
2018-06-12T22:11:59.893Z,24.90
2018-06-12T22:14:26.718Z,24.90
2018-06-12T22:16:53.611Z,24.90
2018-06-12T22:19:20.444Z,24.90
2018-06-12T22:21:47.246Z,24.90
2018-06-12T22:24:14.071Z,24.90
2018-06-12T22:26:40.990Z,24.90
2018-06-12T22:29:07.816Z,24.90
2018-06-12T22:31:34.637Z,24.90
2018-06-12T22:34:01.471Z,24.90
2018-06-12T22:36:28.358Z,24.90
2018-06-12T22:38:55.184Z,24.80
2018-06-12T22:41:22.037Z,24.80
2018-06-12T22:43:48.872Z,24.80
2018-06-12T22:46:15.730Z,24.80
2018-06-12T22:48:42.557Z,24.80
2018-06-12T22:51:09.401Z,24.80
2018-06-12T22:53:36.231Z,24.80
2018-06-12T22:56:03.068Z,24.80
2018-06-12T22:58:29.882Z,24.80
2018-06-12T23:00:56.681Z,24.80
2018-06-12T23:03:23.466Z,24.80
2018-06-12T23:05:50.446Z,24.80
2018-06-12T23:08:17.284Z,24.80
2018-06-12T23:10:44.116Z,24.80
2018-06-12T23:13:10.940Z,24.80
2018-06-12T23:15:37.838Z,24.80
2018-06-12T23:18:04.653Z,24.80
2018-06-12T23:20:31.473Z,24.80
2018-06-12T23:22:58.324Z,24.80
2018-06-12T23:25:25.187Z,24.80
2018-06-12T23:27:51.977Z,24.80
2018-06-12T23:30:18.775Z,24.80
2018-06-12T23:32:45.559Z,24.80
2018-06-12T23:35:12.554Z,24.80
2018-06-12T23:37:39.348Z,24.80
2018-06-12T23:42:33.268Z,24.80
2018-06-12T23:45:00.093Z,24.80
2018-06-12T23:49:54.035Z,24.80
2018-06-12T23:52:20.867Z,24.80
2018-06-12T23:54:47.684Z,24.80
2018-06-12T23:57:14.506Z,24.80
2018-06-12T23:59:41.315Z,24.80
